sensor_id;sensor_type;location;lat;lon;timestamp;temperature;humidity
16517;DHT22;8371;52.272;9.746;2023-01-15T00:01:05;13.40;80.80
16517;DHT22;8371;52.272;9.746;2023-01-15T00:03:31;13.40;80.70
16517;DHT22;8371;52.272;9.746;2023-01-15T00:06:02;13.40;80.40
16517;DHT22;8371;52.272;9.746;2023-01-15T00:08:28;13.30;79.90
16517;DHT22;8371;52.272;9.746;2023-01-15T00:10:54;13.20;79.20
16517;DHT22;8371;52.272;9.746;2023-01-15T00:13:20;13.00;78.90
16517;DHT22;8371;52.272;9.746;2023-01-15T00:15:46;12.80;78.60
16517;DHT22;8371;52.272;9.746;2023-01-15T00:18:12;12.60;78.60
16517;DHT22;8371;52.272;9.746;2023-01-15T00:20:37;12.40;78.90
16517;DHT22;8371;52.272;9.746;2023-01-15T00:23:03;12.20;79.00
16517;DHT22;8371;52.272;9.746;2023-01-15T00:25:29;12.00;79.20
16517;DHT22;8371;52.272;9.746;2023-01-15T00:28:13;11.80;79.50
16517;DHT22;8371;52.272;9.746;2023-01-15T00:30:40;11.60;79.60
16517;DHT22;8371;52.272;9.746;2023-01-15T00:33:07;11.50;79.80
16517;DHT22;8371;52.272;9.746;2023-01-15T00:35:33;11.30;80.00
16517;DHT22;8371;52.272;9.746;2023-01-15T00:37:59;11.20;79.90
16517;DHT22;8371;52.272;9.746;2023-01-15T00:40:25;11.00;80.00
16517;DHT22;8371;52.272;9.746;2023-01-15T00:42:50;10.90;80.10
16517;DHT22;8371;52.272;9.746;2023-01-15T00:45:16;10.80;80.20
16517;DHT22;8371;52.272;9.746;2023-01-15T00:47:43;10.70;80.20
16517;DHT22;8371;52.272;9.746;2023-01-15T00:50:12;10.60;80.20
16517;DHT22;8371;52.272;9.746;2023-01-15T00:52:38;10.40;80.10
16517;DHT22;8371;52.272;9.746;2023-01-15T00:55:05;10.30;80.40
16517;DHT22;8371;52.272;9.746;2023-01-15T00:57:31;10.20;80.30
16517;DHT22;8371;52.272;9.746;2023-01-15T00:59:56;10.10;80.40
16517;DHT22;8371;52.272;9.746;2023-01-15T01:02:22;10.00;80.50
16517;DHT22;8371;52.272;9.746;2023-01-15T01:04:48;10.00;80.70
16517;DHT22;8371;52.272;9.746;2023-01-15T01:07:14;9.90;80.70
16517;DHT22;8371;52.272;9.746;2023-01-15T01:09:40;9.80;80.70
16517;DHT22;8371;52.272;9.746;2023-01-15T01:12:06;9.70;80.60
16517;DHT22;8371;52.272;9.746;2023-01-15T01:14:32;9.60;80.70
16517;DHT22;8371;52.272;9.746;2023-01-15T01:16:58;9.60;80.50
16517;DHT22;8371;52.272;9.746;2023-01-15T01:19:25;9.50;80.50
16517;DHT22;8371;52.272;9.746;2023-01-15T01:21:51;9.40;80.50
16517;DHT22;8371;52.272;9.746;2023-01-15T01:24:19;9.40;80.60
16517;DHT22;8371;52.272;9.746;2023-01-15T01:26:47;9.30;80.70
16517;DHT22;8371;52.272;9.746;2023-01-15T01:29:14;9.30;80.70
16517;DHT22;8371;52.272;9.746;2023-01-15T01:31:40;9.20;80.80
16517;DHT22;8371;52.272;9.746;2023-01-15T01:34:08;9.10;80.80
16517;DHT22;8371;52.272;9.746;2023-01-15T01:36:36;9.10;80.80
16517;DHT22;8371;52.272;9.746;2023-01-15T01:39:06;9.10;80.80
16517;DHT22;8371;52.272;9.746;2023-01-15T01:41:31;9.00;80.70
16517;DHT22;8371;52.272;9.746;2023-01-15T01:44:02;9.00;80.50
16517;DHT22;8371;52.272;9.746;2023-01-15T01:46:30;9.00;80.50
16517;DHT22;8371;52.272;9.746;2023-01-15T01:48:59;8.90;80.40
16517;DHT22;8371;52.272;9.746;2023-01-15T01:51:28;8.90;80.50
16517;DHT22;8371;52.272;9.746;2023-01-15T01:53:57;8.80;80.50
16517;DHT22;8371;52.272;9.746;2023-01-15T01:56:24;8.70;80.50
16517;DHT22;8371;52.272;9.746;2023-01-15T01:58:51;8.70;80.70
16517;DHT22;8371;52.272;9.746;2023-01-15T02:01:18;8.70;80.70
16517;DHT22;8371;52.272;9.746;2023-01-15T02:03:45;8.60;80.60
16517;DHT22;8371;52.272;9.746;2023-01-15T02:06:12;8.60;80.70
16517;DHT22;8371;52.272;9.746;2023-01-15T02:08:38;8.60;80.70
16517;DHT22;8371;52.272;9.746;2023-01-15T02:11:06;8.50;80.70
16517;DHT22;8371;52.272;9.746;2023-01-15T02:13:51;8.50;80.70
16517;DHT22;8371;52.272;9.746;2023-01-15T02:16:13;8.50;80.80
16517;DHT22;8371;52.272;9.746;2023-01-15T02:24:05;8.40;80.80
16517;DHT22;8371;52.272;9.746;2023-01-15T02:27:03;8.40;80.80
16517;DHT22;8371;52.272;9.746;2023-01-15T02:32:49;8.30;80.70
16517;DHT22;8371;52.272;9.746;2023-01-15T02:35:14;8.30;80.70
16517;DHT22;8371;52.272;9.746;2023-01-15T02:37:42;8.30;80.70
16517;DHT22;8371;52.272;9.746;2023-01-15T02:40:09;8.20;80.60
16517;DHT22;8371;52.272;9.746;2023-01-15T02:42:36;8.20;80.70
16517;DHT22;8371;52.272;9.746;2023-01-15T02:45:05;8.20;80.70
16517;DHT22;8371;52.272;9.746;2023-01-15T02:47:34;8.20;80.50
16517;DHT22;8371;52.272;9.746;2023-01-15T02:50:04;8.20;80.50
16517;DHT22;8371;52.272;9.746;2023-01-15T02:52:36;8.20;80.50
16517;DHT22;8371;52.272;9.746;2023-01-15T02:55:06;8.20;80.50
16517;DHT22;8371;52.272;9.746;2023-01-15T02:57:34;8.20;80.50
16517;DHT22;8371;52.272;9.746;2023-01-15T03:00:04;8.20;80.50
16517;DHT22;8371;52.272;9.746;2023-01-15T03:02:34;8.20;80.50
16517;DHT22;8371;52.272;9.746;2023-01-15T03:05:05;8.20;80.60
16517;DHT22;8371;52.272;9.746;2023-01-15T03:07:45;8.20;80.60
16517;DHT22;8371;52.272;9.746;2023-01-15T03:10:11;8.20;80.60
16517;DHT22;8371;52.272;9.746;2023-01-15T03:12:59;8.20;80.60
16517;DHT22;8371;52.272;9.746;2023-01-15T03:15:42;8.20;80.70
16517;DHT22;8371;52.272;9.746;2023-01-15T03:18:28;8.20;80.70
16517;DHT22;8371;52.272;9.746;2023-01-15T03:20:58;8.10;80.60
16517;DHT22;8371;52.272;9.746;2023-01-15T03:23:25;8.10;80.70
16517;DHT22;8371;52.272;9.746;2023-01-15T03:25:51;8.20;80.80
16517;DHT22;8371;52.272;9.746;2023-01-15T03:28:22;8.10;80.80
16517;DHT22;8371;52.272;9.746;2023-01-15T03:30:47;8.10;80.80
16517;DHT22;8371;52.272;9.746;2023-01-15T03:33:12;8.10;80.80
16517;DHT22;8371;52.272;9.746;2023-01-15T03:35:51;8.10;80.80
16517;DHT22;8371;52.272;9.746;2023-01-15T03:38:27;8.10;81.50
16517;DHT22;8371;52.272;9.746;2023-01-15T03:41:13;8.20;80.90
16517;DHT22;8371;52.272;9.746;2023-01-15T03:46:56;8.10;80.80
16517;DHT22;8371;52.272;9.746;2023-01-15T03:49:44;8.10;80.80
16517;DHT22;8371;52.272;9.746;2023-01-15T03:52:21;8.10;80.90
16517;DHT22;8371;52.272;9.746;2023-01-15T03:57:54;8.10;80.90
16517;DHT22;8371;52.272;9.746;2023-01-15T04:00:29;8.10;80.90
16517;DHT22;8371;52.272;9.746;2023-01-15T04:02:56;8.10;80.90
16517;DHT22;8371;52.272;9.746;2023-01-15T04:05:24;8.10;80.90
16517;DHT22;8371;52.272;9.746;2023-01-15T04:07:51;8.10;80.90
16517;DHT22;8371;52.272;9.746;2023-01-15T04:10:19;8.10;80.90
16517;DHT22;8371;52.272;9.746;2023-01-15T04:12:44;8.10;80.90
16517;DHT22;8371;52.272;9.746;2023-01-15T04:15:11;8.10;81.00
16517;DHT22;8371;52.272;9.746;2023-01-15T04:17:38;8.10;80.90
16517;DHT22;8371;52.272;9.746;2023-01-15T04:20:04;8.20;80.50
16517;DHT22;8371;52.272;9.746;2023-01-15T04:22:30;8.20;80.80
16517;DHT22;8371;52.272;9.746;2023-01-15T04:24:56;8.20;80.80
16517;DHT22;8371;52.272;9.746;2023-01-15T04:27:21;8.20;80.80
16517;DHT22;8371;52.272;9.746;2023-01-15T04:29:47;8.20;80.70
16517;DHT22;8371;52.272;9.746;2023-01-15T04:32:13;8.20;80.70
16517;DHT22;8371;52.272;9.746;2023-01-15T04:34:39;8.20;80.70
16517;DHT22;8371;52.272;9.746;2023-01-15T04:37:05;8.30;80.70
16517;DHT22;8371;52.272;9.746;2023-01-15T04:39:31;8.30;80.80
16517;DHT22;8371;52.272;9.746;2023-01-15T04:41:57;8.30;80.70
16517;DHT22;8371;52.272;9.746;2023-01-15T04:44:41;8.30;80.60
16517;DHT22;8371;52.272;9.746;2023-01-15T04:47:07;8.30;80.50
16517;DHT22;8371;52.272;9.746;2023-01-15T04:49:33;8.40;80.60
16517;DHT22;8371;52.272;9.746;2023-01-15T04:51:59;8.40;80.50
16517;DHT22;8371;52.272;9.746;2023-01-15T04:54:25;8.40;80.40
16517;DHT22;8371;52.272;9.746;2023-01-15T04:56:52;8.40;80.30
16517;DHT22;8371;52.272;9.746;2023-01-15T04:59:22;8.40;80.30
16517;DHT22;8371;52.272;9.746;2023-01-15T05:01:47;8.40;80.70
16517;DHT22;8371;52.272;9.746;2023-01-15T05:04:13;8.40;80.10
16517;DHT22;8371;52.272;9.746;2023-01-15T05:06:39;8.40;80.10
16517;DHT22;8371;52.272;9.746;2023-01-15T05:09:05;8.40;80.10
16517;DHT22;8371;52.272;9.746;2023-01-15T05:11:34;8.40;80.10
16517;DHT22;8371;52.272;9.746;2023-01-15T05:14:00;8.40;80.00
16517;DHT22;8371;52.272;9.746;2023-01-15T05:16:27;8.40;80.80
16517;DHT22;8371;52.272;9.746;2023-01-15T05:18:57;8.40;80.00
16517;DHT22;8371;52.272;9.746;2023-01-15T05:21:25;8.40;80.10
16517;DHT22;8371;52.272;9.746;2023-01-15T05:23:53;8.40;80.20
16517;DHT22;8371;52.272;9.746;2023-01-15T05:26:20;8.40;80.10
16517;DHT22;8371;52.272;9.746;2023-01-15T05:28:47;8.40;80.10
16517;DHT22;8371;52.272;9.746;2023-01-15T05:31:14;8.40;80.10
16517;DHT22;8371;52.272;9.746;2023-01-15T05:33:41;8.40;80.10
16517;DHT22;8371;52.272;9.746;2023-01-15T05:36:10;8.40;80.10
16517;DHT22;8371;52.272;9.746;2023-01-15T05:38:37;8.40;80.10
16517;DHT22;8371;52.272;9.746;2023-01-15T05:41:08;8.40;80.10
16517;DHT22;8371;52.272;9.746;2023-01-15T05:43:33;8.40;80.10
16517;DHT22;8371;52.272;9.746;2023-01-15T05:46:00;8.40;80.10
16517;DHT22;8371;52.272;9.746;2023-01-15T05:48:26;8.40;80.00
16517;DHT22;8371;52.272;9.746;2023-01-15T05:50:52;8.40;80.00
16517;DHT22;8371;52.272;9.746;2023-01-15T05:53:17;8.40;80.00
16517;DHT22;8371;52.272;9.746;2023-01-15T05:55:43;8.40;80.00
16517;DHT22;8371;52.272;9.746;2023-01-15T05:58:09;8.40;80.00
16517;DHT22;8371;52.272;9.746;2023-01-15T06:00:34;8.40;80.00
16517;DHT22;8371;52.272;9.746;2023-01-15T06:03:00;8.40;80.00
16517;DHT22;8371;52.272;9.746;2023-01-15T06:05:26;8.40;80.00
16517;DHT22;8371;52.272;9.746;2023-01-15T06:07:51;8.40;80.00
16517;DHT22;8371;52.272;9.746;2023-01-15T06:10:17;8.40;80.00
16517;DHT22;8371;52.272;9.746;2023-01-15T06:12:43;8.40;79.90
16517;DHT22;8371;52.272;9.746;2023-01-15T06:15:10;8.40;79.90
16517;DHT22;8371;52.272;9.746;2023-01-15T06:17:36;8.50;80.10
16517;DHT22;8371;52.272;9.746;2023-01-15T06:20:02;8.50;79.90
16517;DHT22;8371;52.272;9.746;2023-01-15T06:22:28;8.50;79.90
16517;DHT22;8371;52.272;9.746;2023-01-15T06:24:54;8.50;79.80
16517;DHT22;8371;52.272;9.746;2023-01-15T06:27:19;8.50;80.60
16517;DHT22;8371;52.272;9.746;2023-01-15T06:29:45;8.50;79.90
16517;DHT22;8371;52.272;9.746;2023-01-15T06:32:11;8.50;79.80
16517;DHT22;8371;52.272;9.746;2023-01-15T06:34:37;8.50;79.80
16517;DHT22;8371;52.272;9.746;2023-01-15T06:37:02;8.50;79.80
16517;DHT22;8371;52.272;9.746;2023-01-15T06:39:28;8.50;79.70
16517;DHT22;8371;52.272;9.746;2023-01-15T06:41:54;8.50;79.80
16517;DHT22;8371;52.272;9.746;2023-01-15T06:44:38;8.40;80.40
16517;DHT22;8371;52.272;9.746;2023-01-15T06:47:22;8.50;79.70
16517;DHT22;8371;52.272;9.746;2023-01-15T06:49:51;8.40;79.60
16517;DHT22;8371;52.272;9.746;2023-01-15T06:52:17;8.40;79.70
16517;DHT22;8371;52.272;9.746;2023-01-15T06:54:43;8.40;79.70
16517;DHT22;8371;52.272;9.746;2023-01-15T06:57:08;8.40;79.70
16517;DHT22;8371;52.272;9.746;2023-01-15T06:59:34;8.40;79.70
16517;DHT22;8371;52.272;9.746;2023-01-15T07:02:00;8.40;79.80
16517;DHT22;8371;52.272;9.746;2023-01-15T07:04:26;8.40;79.70
16517;DHT22;8371;52.272;9.746;2023-01-15T07:06:51;8.40;79.80
16517;DHT22;8371;52.272;9.746;2023-01-15T07:09:17;8.40;79.70
16517;DHT22;8371;52.272;9.746;2023-01-15T07:11:43;8.40;79.70
16517;DHT22;8371;52.272;9.746;2023-01-15T07:16:44;8.50;79.70
16517;DHT22;8371;52.272;9.746;2023-01-15T07:19:10;8.40;79.50
16517;DHT22;8371;52.272;9.746;2023-01-15T07:21:36;8.40;79.50
16517;DHT22;8371;52.272;9.746;2023-01-15T07:24:03;8.50;79.60
16517;DHT22;8371;52.272;9.746;2023-01-15T07:26:29;8.50;79.50
16517;DHT22;8371;52.272;9.746;2023-01-15T07:28:54;8.50;79.50
16517;DHT22;8371;52.272;9.746;2023-01-15T07:31:20;8.50;79.50
16517;DHT22;8371;52.272;9.746;2023-01-15T07:33:46;8.50;79.50
16517;DHT22;8371;52.272;9.746;2023-01-15T07:36:12;8.50;79.40
16517;DHT22;8371;52.272;9.746;2023-01-15T07:38:37;8.50;79.40
16517;DHT22;8371;52.272;9.746;2023-01-15T07:41:03;8.50;79.30
16517;DHT22;8371;52.272;9.746;2023-01-15T07:43:47;8.50;79.30
16517;DHT22;8371;52.272;9.746;2023-01-15T07:46:31;8.50;79.20
16517;DHT22;8371;52.272;9.746;2023-01-15T07:49:16;8.50;79.10
16517;DHT22;8371;52.272;9.746;2023-01-15T07:52:00;8.50;79.20
16517;DHT22;8371;52.272;9.746;2023-01-15T07:54:26;8.50;79.10
16517;DHT22;8371;52.272;9.746;2023-01-15T07:56:54;8.50;79.10
16517;DHT22;8371;52.272;9.746;2023-01-15T07:59:20;8.60;79.10
16517;DHT22;8371;52.272;9.746;2023-01-15T08:01:45;8.60;79.00
16517;DHT22;8371;52.272;9.746;2023-01-15T08:04:11;8.60;79.10
16517;DHT22;8371;52.272;9.746;2023-01-15T08:06:37;8.60;79.10
16517;DHT22;8371;52.272;9.746;2023-01-15T08:09:03;8.60;79.10
16517;DHT22;8371;52.272;9.746;2023-01-15T08:11:31;8.60;79.10
16517;DHT22;8371;52.272;9.746;2023-01-15T08:14:16;8.60;78.90
16517;DHT22;8371;52.272;9.746;2023-01-15T08:17:00;8.70;78.90
16517;DHT22;8371;52.272;9.746;2023-01-15T08:19:26;8.70;79.00
16517;DHT22;8371;52.272;9.746;2023-01-15T08:21:57;8.70;79.10
16517;DHT22;8371;52.272;9.746;2023-01-15T08:24:23;8.70;78.90
16517;DHT22;8371;52.272;9.746;2023-01-15T08:26:49;8.70;78.90
16517;DHT22;8371;52.272;9.746;2023-01-15T08:29:16;8.70;78.80
16517;DHT22;8371;52.272;9.746;2023-01-15T08:31:41;8.70;78.60
16517;DHT22;8371;52.272;9.746;2023-01-15T08:34:07;8.80;78.60
16517;DHT22;8371;52.272;9.746;2023-01-15T08:36:33;8.80;78.70
16517;DHT22;8371;52.272;9.746;2023-01-15T08:38:59;8.80;78.60
16517;DHT22;8371;52.272;9.746;2023-01-15T08:41:24;8.80;78.40
16517;DHT22;8371;52.272;9.746;2023-01-15T08:43:50;8.80;78.40
16517;DHT22;8371;52.272;9.746;2023-01-15T08:46:16;8.80;78.40
16517;DHT22;8371;52.272;9.746;2023-01-15T08:48:42;8.80;78.40
16517;DHT22;8371;52.272;9.746;2023-01-15T08:51:10;8.90;78.20
16517;DHT22;8371;52.272;9.746;2023-01-15T08:53:36;8.90;78.30
16517;DHT22;8371;52.272;9.746;2023-01-15T08:56:02;8.90;78.20
16517;DHT22;8371;52.272;9.746;2023-01-15T08:58:30;8.90;78.20
16517;DHT22;8371;52.272;9.746;2023-01-15T09:01:02;8.90;78.10
16517;DHT22;8371;52.272;9.746;2023-01-15T09:03:23;8.90;78.80
16517;DHT22;8371;52.272;9.746;2023-01-15T09:05:49;8.90;78.00
16517;DHT22;8371;52.272;9.746;2023-01-15T09:08:15;8.80;77.80
16517;DHT22;8371;52.272;9.746;2023-01-15T09:10:40;8.90;77.70
16517;DHT22;8371;52.272;9.746;2023-01-15T09:13:06;8.90;77.80
16517;DHT22;8371;52.272;9.746;2023-01-15T09:15:32;8.80;77.80
16517;DHT22;8371;52.272;9.746;2023-01-15T09:17:58;8.80;77.70
16517;DHT22;8371;52.272;9.746;2023-01-15T09:20:23;8.80;77.70
16517;DHT22;8371;52.272;9.746;2023-01-15T09:22:50;8.80;77.60
16517;DHT22;8371;52.272;9.746;2023-01-15T09:25:16;8.80;77.50
16517;DHT22;8371;52.272;9.746;2023-01-15T09:27:44;8.80;77.50
16517;DHT22;8371;52.272;9.746;2023-01-15T09:30:13;8.90;77.60
16517;DHT22;8371;52.272;9.746;2023-01-15T09:32:39;8.90;77.80
16517;DHT22;8371;52.272;9.746;2023-01-15T09:35:06;8.90;77.70
16517;DHT22;8371;52.272;9.746;2023-01-15T09:37:32;8.90;77.70
16517;DHT22;8371;52.272;9.746;2023-01-15T09:39:57;8.90;77.60
16517;DHT22;8371;52.272;9.746;2023-01-15T09:42:31;9.00;77.60
16517;DHT22;8371;52.272;9.746;2023-01-15T09:47:38;9.10;77.70
16517;DHT22;8371;52.272;9.746;2023-01-15T09:50:22;9.10;77.50
16517;DHT22;8371;52.272;9.746;2023-01-15T09:53:16;9.20;77.60
16517;DHT22;8371;52.272;9.746;2023-01-15T09:55:44;9.20;77.40
16517;DHT22;8371;52.272;9.746;2023-01-15T09:58:10;9.30;77.90
16517;DHT22;8371;52.272;9.746;2023-01-15T10:00:42;9.30;77.90
16517;DHT22;8371;52.272;9.746;2023-01-15T10:06:22;9.30;76.40
16517;DHT22;8371;52.272;9.746;2023-01-15T10:08:48;9.40;76.70
16517;DHT22;8371;52.272;9.746;2023-01-15T10:11:20;9.40;76.50
16517;DHT22;8371;52.272;9.746;2023-01-15T10:13:47;9.30;76.20
16517;DHT22;8371;52.272;9.746;2023-01-15T10:16:22;9.40;76.30
16517;DHT22;8371;52.272;9.746;2023-01-15T10:18:46;9.40;76.30
16517;DHT22;8371;52.272;9.746;2023-01-15T10:24:06;9.40;76.30
16517;DHT22;8371;52.272;9.746;2023-01-15T10:26:35;9.40;76.10
16517;DHT22;8371;52.272;9.746;2023-01-15T10:37:02;9.30;75.60
16517;DHT22;8371;52.272;9.746;2023-01-15T10:39:41;9.30;75.80
16517;DHT22;8371;52.272;9.746;2023-01-15T10:45:04;9.20;75.50
16517;DHT22;8371;52.272;9.746;2023-01-15T10:47:29;9.20;75.50
16517;DHT22;8371;52.272;9.746;2023-01-15T10:49:56;9.10;75.70
16517;DHT22;8371;52.272;9.746;2023-01-15T10:52:32;9.10;75.80
16517;DHT22;8371;52.272;9.746;2023-01-15T10:55:28;9.00;75.90
16517;DHT22;8371;52.272;9.746;2023-01-15T11:00:21;9.00;76.00
16517;DHT22;8371;52.272;9.746;2023-01-15T11:03:02;9.00;76.30
16517;DHT22;8371;52.272;9.746;2023-01-15T11:05:34;9.00;76.50
16517;DHT22;8371;52.272;9.746;2023-01-15T11:08:03;9.00;76.50
16517;DHT22;8371;52.272;9.746;2023-01-15T11:10:30;9.10;76.70
16517;DHT22;8371;52.272;9.746;2023-01-15T11:12:59;9.20;76.40
16517;DHT22;8371;52.272;9.746;2023-01-15T11:15:47;9.20;76.50
16517;DHT22;8371;52.272;9.746;2023-01-15T11:18:34;9.30;76.70
16517;DHT22;8371;52.272;9.746;2023-01-15T11:21:21;9.40;76.20
16517;DHT22;8371;52.272;9.746;2023-01-15T11:23:48;9.50;76.40
16517;DHT22;8371;52.272;9.746;2023-01-15T11:26:23;9.50;76.10
16517;DHT22;8371;52.272;9.746;2023-01-15T11:28:49;9.60;76.00
16517;DHT22;8371;52.272;9.746;2023-01-15T11:31:16;9.70;75.60
16517;DHT22;8371;52.272;9.746;2023-01-15T11:33:57;9.80;75.70
16517;DHT22;8371;52.272;9.746;2023-01-15T11:36:26;9.80;75.60
16517;DHT22;8371;52.272;9.746;2023-01-15T11:38:52;9.90;75.70
16517;DHT22;8371;52.272;9.746;2023-01-15T11:43:55;10.00;75.50
16517;DHT22;8371;52.272;9.746;2023-01-15T11:46:31;10.00;75.10
16517;DHT22;8371;52.272;9.746;2023-01-15T11:49:18;10.10;75.30
16517;DHT22;8371;52.272;9.746;2023-01-15T11:52:26;10.20;74.90
16517;DHT22;8371;52.272;9.746;2023-01-15T11:54:42;10.30;74.80
16517;DHT22;8371;52.272;9.746;2023-01-15T11:57:04;10.30;74.10
16517;DHT22;8371;52.272;9.746;2023-01-15T11:59:31;10.30;73.90
16517;DHT22;8371;52.272;9.746;2023-01-15T12:02:03;10.40;73.60
16517;DHT22;8371;52.272;9.746;2023-01-15T12:07:18;10.40;73.00
16517;DHT22;8371;52.272;9.746;2023-01-15T12:10:09;10.40;72.40
16517;DHT22;8371;52.272;9.746;2023-01-15T12:15:32;10.40;73.00
16517;DHT22;8371;52.272;9.746;2023-01-15T12:18:19;10.40;72.80
16517;DHT22;8371;52.272;9.746;2023-01-15T12:20:56;10.40;72.90
16517;DHT22;8371;52.272;9.746;2023-01-15T12:23:36;10.50;72.50
16517;DHT22;8371;52.272;9.746;2023-01-15T12:26:12;10.50;72.40
16517;DHT22;8371;52.272;9.746;2023-01-15T12:28:43;10.40;71.40
16517;DHT22;8371;52.272;9.746;2023-01-15T12:31:14;10.40;71.70
16517;DHT22;8371;52.272;9.746;2023-01-15T12:33:51;10.50;71.80
16517;DHT22;8371;52.272;9.746;2023-01-15T12:36:36;10.50;71.70
16517;DHT22;8371;52.272;9.746;2023-01-15T12:39:03;10.40;71.40
16517;DHT22;8371;52.272;9.746;2023-01-15T12:41:34;10.40;71.10
16517;DHT22;8371;52.272;9.746;2023-01-15T12:47:25;10.50;71.10
16517;DHT22;8371;52.272;9.746;2023-01-15T12:49:59;10.40;71.20
16517;DHT22;8371;52.272;9.746;2023-01-15T12:52:30;10.40;70.80
16517;DHT22;8371;52.272;9.746;2023-01-15T12:55:04;10.50;71.10
16517;DHT22;8371;52.272;9.746;2023-01-15T12:57:36;10.40;71.10
16517;DHT22;8371;52.272;9.746;2023-01-15T13:00:17;10.50;70.90
16517;DHT22;8371;52.272;9.746;2023-01-15T13:02:37;10.40;71.00
16517;DHT22;8371;52.272;9.746;2023-01-15T13:05:30;10.40;70.90
16517;DHT22;8371;52.272;9.746;2023-01-15T13:08:07;10.50;70.80
16517;DHT22;8371;52.272;9.746;2023-01-15T13:10:32;10.50;71.10
16517;DHT22;8371;52.272;9.746;2023-01-15T13:13:22;10.50;71.20
16517;DHT22;8371;52.272;9.746;2023-01-15T13:16:11;10.50;71.10
16517;DHT22;8371;52.272;9.746;2023-01-15T13:21:11;10.50;70.80
16517;DHT22;8371;52.272;9.746;2023-01-15T13:23:43;10.50;69.70
16517;DHT22;8371;52.272;9.746;2023-01-15T13:26:44;10.50;70.70
16517;DHT22;8371;52.272;9.746;2023-01-15T13:29:31;10.50;70.40
16517;DHT22;8371;52.272;9.746;2023-01-15T13:32:02;10.50;70.20
16517;DHT22;8371;52.272;9.746;2023-01-15T13:34:55;10.40;70.60
16517;DHT22;8371;52.272;9.746;2023-01-15T13:37:14;10.40;70.10
16517;DHT22;8371;52.272;9.746;2023-01-15T13:39:40;10.40;70.00
16517;DHT22;8371;52.272;9.746;2023-01-15T13:42:15;10.40;70.10
16517;DHT22;8371;52.272;9.746;2023-01-15T13:45:04;10.40;70.20
16517;DHT22;8371;52.272;9.746;2023-01-15T13:47:33;10.40;70.20
16517;DHT22;8371;52.272;9.746;2023-01-15T13:50:03;10.30;69.40
16517;DHT22;8371;52.272;9.746;2023-01-15T13:52:34;10.30;70.10
16517;DHT22;8371;52.272;9.746;2023-01-15T13:57:40;10.30;70.00
16517;DHT22;8371;52.272;9.746;2023-01-15T14:00:27;10.30;69.10
16517;DHT22;8371;52.272;9.746;2023-01-15T14:03:00;10.20;69.60
16517;DHT22;8371;52.272;9.746;2023-01-15T14:07:59;10.20;69.80
16517;DHT22;8371;52.272;9.746;2023-01-15T14:10:34;10.20;70.20
16517;DHT22;8371;52.272;9.746;2023-01-15T14:13:28;10.10;69.80
16517;DHT22;8371;52.272;9.746;2023-01-15T14:16:11;10.10;69.60
16517;DHT22;8371;52.272;9.746;2023-01-15T14:18:51;10.10;70.20
16517;DHT22;8371;52.272;9.746;2023-01-15T14:21:19;10.00;70.10
16517;DHT22;8371;52.272;9.746;2023-01-15T14:23:57;10.00;70.10
16517;DHT22;8371;52.272;9.746;2023-01-15T14:26:28;10.00;69.80
16517;DHT22;8371;52.272;9.746;2023-01-15T14:34:59;10.00;69.40
16517;DHT22;8371;52.272;9.746;2023-01-15T14:37:29;10.00;69.60
16517;DHT22;8371;52.272;9.746;2023-01-15T14:40:01;10.00;69.20
16517;DHT22;8371;52.272;9.746;2023-01-15T14:42:36;10.00;69.60
16517;DHT22;8371;52.272;9.746;2023-01-15T14:45:38;10.00;69.00
16517;DHT22;8371;52.272;9.746;2023-01-15T14:48:15;10.00;69.40
16517;DHT22;8371;52.272;9.746;2023-01-15T14:50:37;10.00;69.00
16517;DHT22;8371;52.272;9.746;2023-01-15T14:56:35;10.00;68.80
16517;DHT22;8371;52.272;9.746;2023-01-15T15:01:14;10.00;68.60
16517;DHT22;8371;52.272;9.746;2023-01-15T15:03:49;10.00;69.50
16517;DHT22;8371;52.272;9.746;2023-01-15T15:06:12;10.00;68.80
16517;DHT22;8371;52.272;9.746;2023-01-15T15:08:39;10.00;69.10
16517;DHT22;8371;52.272;9.746;2023-01-15T15:11:11;10.00;69.00
16517;DHT22;8371;52.272;9.746;2023-01-15T15:13:38;10.00;68.80
16517;DHT22;8371;52.272;9.746;2023-01-15T15:16:24;10.00;69.10
16517;DHT22;8371;52.272;9.746;2023-01-15T15:19:08;10.00;69.20
16517;DHT22;8371;52.272;9.746;2023-01-15T15:21:36;10.00;69.00
16517;DHT22;8371;52.272;9.746;2023-01-15T15:24:23;9.90;68.70
16517;DHT22;8371;52.272;9.746;2023-01-15T15:26:43;9.90;68.00
16517;DHT22;8371;52.272;9.746;2023-01-15T15:29:12;9.90;67.90
16517;DHT22;8371;52.272;9.746;2023-01-15T15:31:40;9.80;68.10
16517;DHT22;8371;52.272;9.746;2023-01-15T15:34:11;9.90;68.40
16517;DHT22;8371;52.272;9.746;2023-01-15T15:36:36;9.80;68.20
16517;DHT22;8371;52.272;9.746;2023-01-15T15:39:14;9.80;68.10
16517;DHT22;8371;52.272;9.746;2023-01-15T15:41:34;9.80;68.00
16517;DHT22;8371;52.272;9.746;2023-01-15T15:44:31;9.70;68.20
16517;DHT22;8371;52.272;9.746;2023-01-15T15:47:20;9.70;67.30
16517;DHT22;8371;52.272;9.746;2023-01-15T15:49:57;9.60;67.70
16517;DHT22;8371;52.272;9.746;2023-01-15T15:52:22;9.60;67.50
16517;DHT22;8371;52.272;9.746;2023-01-15T15:54:57;9.60;67.50
16517;DHT22;8371;52.272;9.746;2023-01-15T15:57:26;9.60;67.70
16517;DHT22;8371;52.272;9.746;2023-01-15T15:59:52;9.50;67.60
16517;DHT22;8371;52.272;9.746;2023-01-15T16:04:55;9.50;67.90
16517;DHT22;8371;52.272;9.746;2023-01-15T16:07:27;9.50;67.90
16517;DHT22;8371;52.272;9.746;2023-01-15T16:09:57;9.40;67.90
16517;DHT22;8371;52.272;9.746;2023-01-15T16:12:25;9.40;67.50
16517;DHT22;8371;52.272;9.746;2023-01-15T16:14:53;9.40;67.70
16517;DHT22;8371;52.272;9.746;2023-01-15T16:17:19;9.40;67.80
16517;DHT22;8371;52.272;9.746;2023-01-15T16:19:46;9.30;67.90
16517;DHT22;8371;52.272;9.746;2023-01-15T16:22:14;9.40;68.00
16517;DHT22;8371;52.272;9.746;2023-01-15T16:24:51;9.30;68.10
16517;DHT22;8371;52.272;9.746;2023-01-15T16:27:15;9.40;68.00
16517;DHT22;8371;52.272;9.746;2023-01-15T16:29:47;9.40;68.30
16517;DHT22;8371;52.272;9.746;2023-01-15T16:32:17;9.40;68.00
16517;DHT22;8371;52.272;9.746;2023-01-15T16:34:43;9.40;68.30
16517;DHT22;8371;52.272;9.746;2023-01-15T16:37:24;9.40;68.00
16517;DHT22;8371;52.272;9.746;2023-01-15T16:39:50;9.30;68.10
16517;DHT22;8371;52.272;9.746;2023-01-15T16:42:25;9.30;68.00
16517;DHT22;8371;52.272;9.746;2023-01-15T16:44:58;9.30;67.90
16517;DHT22;8371;52.272;9.746;2023-01-15T16:47:26;9.30;67.80
16517;DHT22;8371;52.272;9.746;2023-01-15T16:50:22;9.30;68.20
16517;DHT22;8371;52.272;9.746;2023-01-15T17:00:39;9.30;68.20
16517;DHT22;8371;52.272;9.746;2023-01-15T17:03:20;9.30;68.10
16517;DHT22;8371;52.272;9.746;2023-01-15T17:05:54;9.30;68.30
16517;DHT22;8371;52.272;9.746;2023-01-15T17:08:25;9.30;68.30
16517;DHT22;8371;52.272;9.746;2023-01-15T17:11:01;9.30;68.20
16517;DHT22;8371;52.272;9.746;2023-01-15T17:13:33;9.30;68.20
16517;DHT22;8371;52.272;9.746;2023-01-15T17:16:02;9.30;68.00
16517;DHT22;8371;52.272;9.746;2023-01-15T17:18:30;9.30;68.00
16517;DHT22;8371;52.272;9.746;2023-01-15T17:20:57;9.30;68.10
16517;DHT22;8371;52.272;9.746;2023-01-15T17:23:26;9.40;68.20
16517;DHT22;8371;52.272;9.746;2023-01-15T17:25:53;9.40;68.20
16517;DHT22;8371;52.272;9.746;2023-01-15T17:28:18;9.40;68.10
16517;DHT22;8371;52.272;9.746;2023-01-15T17:30:46;9.40;68.30
16517;DHT22;8371;52.272;9.746;2023-01-15T17:33:12;9.40;68.00
16517;DHT22;8371;52.272;9.746;2023-01-15T17:35:39;9.40;68.00
16517;DHT22;8371;52.272;9.746;2023-01-15T17:38:09;9.50;68.20